logo
Search for airport 
image banner adimage banner adimage banner ad
image banner ad

YMING - Mingela

Located in , Australia

ICAO - , IATA -

Data provided by Airmate  

General information

Coordinates: S19°52'5" E146°37'14"
Elevation is 968 feet MSL.
Magnetic variation is 7° East
View others Airports in Queensland

Operational data

Special qualification required
Current time UTC:
Current local time:
METAR: YBTL 301800Z AUTO 13008KT 9999 // NCD 21/18 Q1018 RF00.0/000.2
TAF: TAF YBTL 301704Z 3018/3118 12008KT 9999 SCT025 FM310100 07012KT 9999 FEW028 FM310900 11006KT 9999 FEW020 FM311500 15006KT 9999 SCT015
View NOTAMs / SUP AIP / TFR affecting this airport [VIEW]
Communications frequencies: [VIEW]

Runways:

RWY identifierQFULength (ft)Width (ft)SurfaceLDA (ft)
29301°3841134GRAS
11121°3841134GRAS

Airport contact information

Address: Australia

Satellite view of YMING